createdAt,value
2018-02-15T00:00:40.798Z,33.28
2018-02-15T00:03:08.347Z,28.35
2018-02-15T00:05:36.021Z,31.48
2018-02-15T00:08:04.336Z,28.85
2018-02-15T00:10:32.996Z,27.85
2018-02-15T00:13:00.653Z,30.70
2018-02-15T00:15:28.298Z,24.63
2018-02-15T00:17:55.829Z,24.90
2018-02-15T00:20:23.507Z,24.52
2018-02-15T00:22:52.025Z,24.80
2018-02-15T00:25:20.168Z,25.55
2018-02-15T00:27:47.844Z,21.05
2018-02-15T00:30:15.395Z,21.48
2018-02-15T00:32:42.995Z,23.73
2018-02-15T00:35:10.653Z,21.20
2018-02-15T00:37:39.214Z,21.08
2018-02-15T00:40:06.792Z,22.73
2018-02-15T00:42:34.449Z,26.42
2018-02-15T00:45:01.998Z,20.42
2018-02-15T00:47:31.571Z,20.80
2018-02-15T00:49:58.735Z,24.10
2018-02-15T00:55:20.839Z,23.55
2018-02-15T00:57:49.744Z,22.55
2018-02-15T01:00:17.295Z,28.23
2018-02-15T01:02:45.753Z,22.35
2018-02-15T01:05:13.292Z,23.12
2018-02-15T01:07:41.605Z,23.55
2018-02-15T01:10:09.289Z,24.30
2018-02-15T01:12:36.906Z,24.70
2018-02-15T01:15:04.491Z,25.12
2018-02-15T01:17:32.742Z,25.30
2018-02-15T01:20:00.294Z,22.02
2018-02-15T01:22:27.853Z,28.70
2018-02-15T01:24:56.284Z,26.00
2018-02-15T01:27:23.826Z,23.08
2018-02-15T01:29:51.873Z,24.20
2018-02-15T01:32:20.527Z,23.08
2018-02-15T01:34:48.068Z,20.20
2018-02-15T01:37:15.601Z,22.15
2018-02-15T01:39:43.202Z,21.48
2018-02-15T01:42:11.505Z,23.25
2018-02-15T01:44:39.071Z,25.17
2018-02-15T01:47:06.771Z,22.62
2018-02-15T01:49:34.321Z,17.17
2018-02-15T01:52:02.107Z,19.75
2018-02-15T01:54:30.767Z,20.98
2018-02-15T01:56:58.316Z,20.40
2018-02-15T01:59:25.846Z,19.37
2018-02-15T02:01:53.569Z,16.77
2018-02-15T02:04:21.810Z,18.17
2018-02-15T02:06:50.664Z,18.60
2018-02-15T02:12:12.118Z,18.15
2018-02-15T02:14:40.418Z,17.62
2018-02-15T02:17:09.544Z,13.50
2018-02-15T02:19:37.182Z,16.15
2018-02-15T02:22:04.738Z,18.48
2018-02-15T02:24:32.735Z,17.77
2018-02-15T02:27:00.285Z,20.42
2018-02-15T02:32:21.112Z,21.55
2018-02-15T02:34:49.669Z,16.85
2018-02-15T02:37:17.206Z,19.05
2018-02-15T02:39:44.881Z,19.45
2018-02-15T02:42:14.163Z,18.42
2018-02-15T02:44:41.713Z,17.80
2018-02-15T02:47:11.172Z,14.50
2018-02-15T02:49:39.517Z,19.60
2018-02-15T02:52:08.005Z,21.17
2018-02-15T02:54:36.419Z,18.45
2018-02-15T02:57:03.967Z,16.37
2018-02-15T02:59:31.502Z,17.42
2018-02-15T03:01:59.180Z,17.37
2018-02-15T03:04:26.752Z,13.25
2018-02-15T03:06:54.288Z,14.90
2018-02-15T03:09:22.724Z,19.62
2018-02-15T03:11:51.859Z,21.20
2018-02-15T03:14:20.103Z,20.33
2018-02-15T03:16:48.051Z,16.15
2018-02-15T03:19:15.589Z,19.02
2018-02-15T03:21:43.148Z,20.35
2018-02-15T03:24:10.739Z,21.90
2018-02-15T03:26:38.295Z,19.52
2018-02-15T03:29:05.842Z,19.02
2018-02-15T03:31:34.221Z,16.17
2018-02-15T03:34:02.533Z,21.67
2018-02-15T03:36:30.864Z,17.05
2018-02-15T03:38:58.446Z,22.37
2018-02-15T03:41:25.996Z,22.45
2018-02-15T03:43:53.532Z,19.83
2018-02-15T03:46:21.707Z,16.20
2018-02-15T03:48:50.881Z,14.87
2018-02-15T03:51:19.655Z,10.85
2018-02-15T03:53:47.218Z,12.15
2018-02-15T03:56:15.519Z,10.75
2018-02-15T03:58:43.076Z,19.58
2018-02-15T04:01:10.643Z,18.95
2018-02-15T04:03:38.990Z,10.55
2018-02-15T04:06:06.530Z,13.48
2018-02-15T04:08:34.119Z,13.18
2018-02-15T04:11:01.676Z,12.50
2018-02-15T04:13:29.222Z,12.65
2018-02-15T04:15:58.074Z,15.30
2018-02-15T04:18:26.388Z,13.43
2018-02-15T04:20:53.959Z,15.35
2018-02-15T04:23:21.824Z,15.80
2018-02-15T04:25:50.775Z,15.95
2018-02-15T04:28:18.334Z,14.57
2018-02-15T04:30:46.770Z,15.07
2018-02-15T04:33:14.339Z,21.20
2018-02-15T04:35:42.657Z,13.00
2018-02-15T04:38:10.348Z,19.52
2018-02-15T04:40:38.676Z,15.23
2018-02-15T04:43:06.212Z,14.23
2018-02-15T04:45:33.869Z,17.42
2018-02-15T04:48:01.443Z,11.12
2018-02-15T04:50:28.988Z,14.48
2018-02-15T04:52:56.715Z,18.52
2018-02-15T04:55:24.245Z,19.77
2018-02-15T04:57:51.790Z,18.92
2018-02-15T05:00:19.464Z,12.13
2018-02-15T05:02:47.752Z,12.68
2018-02-15T05:05:15.303Z,14.30
2018-02-15T05:07:42.977Z,14.25
2018-02-15T05:10:10.515Z,14.00
2018-02-15T05:12:38.116Z,15.63
2018-02-15T05:15:06.371Z,13.18
2018-02-15T05:17:34.880Z,15.65
2018-02-15T05:20:03.463Z,16.42
2018-02-15T05:22:32.181Z,15.63
2018-02-15T05:24:59.741Z,10.55
2018-02-15T05:27:27.261Z,13.30
2018-02-15T05:29:54.944Z,13.15
2018-02-15T05:32:22.549Z,10.60
2018-02-15T05:34:50.073Z,15.55
2018-02-15T05:37:18.508Z,13.27
2018-02-15T05:39:46.046Z,11.25
2018-02-15T05:42:13.598Z,15.20
2018-02-15T05:44:41.259Z,8.82
2018-02-15T05:47:09.560Z,14.18
2018-02-15T05:49:37.160Z,13.60
2018-02-15T05:52:07.010Z,9.98
2018-02-15T05:54:34.895Z,8.95
2018-02-15T05:57:03.218Z,16.95
2018-02-15T05:59:30.870Z,9.20
2018-02-15T06:01:58.421Z,11.75
2018-02-15T06:04:25.950Z,13.93
2018-02-15T06:06:53.714Z,12.98
2018-02-15T06:09:22.021Z,12.75
2018-02-15T06:11:49.555Z,20.73
2018-02-15T06:14:17.237Z,9.57
2018-02-15T06:16:44.791Z,15.77
2018-02-15T06:19:12.466Z,10.77
2018-02-15T06:21:40.148Z,15.65
2018-02-15T06:24:07.694Z,17.02
2018-02-15T06:26:35.870Z,10.73
2018-02-15T06:29:03.605Z,14.52
2018-02-15T06:31:31.183Z,16.17
2018-02-15T06:34:00.447Z,15.30
2018-02-15T06:36:28.115Z,9.93
2018-02-15T06:38:56.490Z,11.45
2018-02-15T06:41:24.796Z,9.57
2018-02-15T06:43:52.545Z,11.77
2018-02-15T06:46:20.101Z,27.13
2018-02-15T06:48:47.637Z,9.15
2018-02-15T06:51:15.396Z,12.60
2018-02-15T06:53:42.930Z,7.87
2018-02-15T06:56:11.246Z,9.73
2018-02-15T06:58:38.997Z,9.00
2018-02-15T07:01:07.964Z,10.35
2018-02-15T07:03:36.541Z,9.85
2018-02-15T07:06:05.273Z,11.98
2018-02-15T07:08:32.825Z,15.82
2018-02-15T07:11:01.130Z,16.55
2018-02-15T07:13:29.822Z,13.52
2018-02-15T07:15:57.418Z,14.77
2018-02-15T07:18:25.363Z,14.40
2018-02-15T07:20:53.192Z,9.57
2018-02-15T07:23:21.487Z,13.15
2018-02-15T07:25:50.061Z,8.15
2018-02-15T07:28:17.840Z,9.60
2018-02-15T07:30:45.381Z,9.80
2018-02-15T07:33:12.942Z,11.35
2018-02-15T07:35:41.386Z,13.80
2018-02-15T07:38:08.941Z,9.27
2018-02-15T07:40:36.984Z,11.05
2018-02-15T07:43:06.153Z,12.18
2018-02-15T07:45:34.827Z,13.23
2018-02-15T07:48:03.292Z,11.43
2018-02-15T07:50:31.755Z,11.18
2018-02-15T07:53:00.136Z,22.05
2018-02-15T07:55:27.714Z,14.73
2018-02-15T07:57:55.420Z,15.27
2018-02-15T08:00:23.771Z,11.30
2018-02-15T08:02:52.090Z,18.00
2018-02-15T08:05:19.742Z,15.05
2018-02-15T08:07:47.296Z,13.13
2018-02-15T08:10:14.861Z,13.93
2018-02-15T08:12:43.301Z,13.85
2018-02-15T08:15:10.849Z,15.52
2018-02-15T08:17:38.549Z,12.27
2018-02-15T08:20:07.059Z,16.33
2018-02-15T08:22:35.953Z,11.77
2018-02-15T08:25:03.558Z,9.05
2018-02-15T08:27:31.328Z,22.00
2018-02-15T08:29:58.909Z,14.98
2018-02-15T08:32:26.481Z,10.27
2018-02-15T08:34:55.068Z,12.77
2018-02-15T08:37:22.622Z,8.52
2018-02-15T08:39:50.786Z,16.75
2018-02-15T08:42:18.453Z,7.25
2018-02-15T08:44:46.797Z,12.82
2018-02-15T08:47:15.099Z,15.15
2018-02-15T08:49:42.809Z,15.45
2018-02-15T08:52:11.139Z,12.05
2018-02-15T08:54:40.466Z,12.30
2018-02-15T08:57:08.145Z,11.40
2018-02-15T08:59:37.064Z,9.88
2018-02-15T09:02:06.147Z,8.82
2018-02-15T09:04:35.593Z,11.52
2018-02-15T09:07:03.176Z,13.75
2018-02-15T09:09:30.760Z,13.57
2018-02-15T09:11:58.422Z,8.13
2018-02-15T09:14:25.953Z,8.48
2018-02-15T09:16:53.498Z,6.43
2018-02-15T09:19:21.188Z,14.23
2018-02-15T09:21:49.511Z,8.52
2018-02-15T09:24:17.198Z,8.50
2018-02-15T09:26:46.662Z,8.95
2018-02-15T09:29:17.857Z,7.18
2018-02-15T09:31:45.444Z,9.98
2018-02-15T09:34:13.859Z,9.73
2018-02-15T09:36:42.141Z,10.02
2018-02-15T09:39:09.684Z,13.05
2018-02-15T09:41:37.428Z,19.20
2018-02-15T09:44:05.495Z,10.38
2018-02-15T09:46:33.047Z,8.45
2018-02-15T09:49:01.598Z,14.95
2018-02-15T09:51:29.145Z,7.87
2018-02-15T09:53:56.689Z,5.82
2018-02-15T09:56:25.069Z,19.77
2018-02-15T09:58:52.708Z,18.55
2018-02-15T10:01:20.240Z,9.90
2018-02-15T10:03:47.960Z,10.45
2018-02-15T10:06:15.568Z,14.82
2018-02-15T10:08:43.114Z,13.88
2018-02-15T10:11:10.789Z,6.47
2018-02-15T10:13:38.525Z,16.45
2018-02-15T10:16:06.773Z,16.13
2018-02-15T10:18:35.201Z,14.50
2018-02-15T10:21:03.537Z,15.93
2018-02-15T10:23:32.034Z,12.20
2018-02-15T10:26:00.535Z,9.73
2018-02-15T10:28:28.107Z,21.13
2018-02-15T10:30:56.453Z,20.13
2018-02-15T10:33:24.372Z,21.00
2018-02-15T10:35:51.923Z,13.43
2018-02-15T10:38:19.468Z,14.50
2018-02-15T10:40:47.140Z,17.47
2018-02-15T10:43:14.873Z,12.40
2018-02-15T10:45:42.393Z,10.10
2018-02-15T10:48:11.768Z,7.90
2018-02-15T10:50:41.249Z,15.10
2018-02-15T10:53:09.753Z,13.10
2018-02-15T10:55:37.674Z,9.20
2018-02-15T10:58:05.953Z,16.63
2018-02-15T11:00:39.447Z,18.80
2018-02-15T11:03:13.079Z,9.63
2018-02-15T11:05:41.583Z,13.23
2018-02-15T11:08:09.125Z,8.40
2018-02-15T11:10:36.817Z,17.83
2018-02-15T11:13:06.157Z,12.67
2018-02-15T11:15:33.722Z,25.37
2018-02-15T11:18:01.290Z,13.77
2018-02-15T11:20:29.732Z,12.63
2018-02-15T11:22:57.289Z,11.90
2018-02-15T11:25:24.898Z,27.83
2018-02-15T11:27:53.177Z,26.60
2018-02-15T11:30:20.738Z,13.73
2018-02-15T11:32:49.062Z,8.40
2018-02-15T11:35:16.743Z,10.47
2018-02-15T11:37:45.096Z,15.37
2018-02-15T11:40:12.647Z,11.70
2018-02-15T11:42:41.080Z,17.83
2018-02-15T11:45:08.610Z,11.60
2018-02-15T11:47:36.996Z,12.80
2018-02-15T11:50:05.543Z,17.63
2018-02-15T11:52:34.116Z,9.20
2018-02-15T11:55:01.654Z,11.40
2018-02-15T11:57:30.100Z,8.50
2018-02-15T11:59:57.850Z,6.50
2018-02-15T12:02:25.498Z,14.53
2018-02-15T12:04:53.071Z,7.40
2018-02-15T12:07:20.672Z,18.00
2018-02-15T12:09:48.244Z,14.05
2018-02-15T12:12:15.958Z,25.47
2018-02-15T12:14:43.543Z,14.60
2018-02-15T12:17:11.102Z,30.30
2018-02-15T12:19:38.866Z,27.83
2018-02-15T12:22:08.124Z,22.63
2018-02-15T12:24:36.666Z,17.77
2018-02-15T12:27:04.876Z,17.10
2018-02-15T12:29:33.263Z,17.37
2018-02-15T12:32:00.805Z,40.73
2018-02-15T12:34:28.543Z,48.60
2018-02-15T12:36:56.089Z,39.83
2018-02-15T12:39:23.647Z,17.30
2018-02-15T12:41:51.241Z,16.63
2018-02-15T12:44:18.847Z,19.93
2018-02-15T12:46:46.436Z,21.50
2018-02-15T12:49:14.530Z,16.50
2018-02-15T12:51:42.089Z,38.43
2018-02-15T12:54:09.689Z,16.53
2018-02-15T12:56:37.332Z,18.13
2018-02-15T12:59:06.230Z,13.33
2018-02-15T13:01:33.873Z,13.60
2018-02-15T13:04:01.430Z,23.40
2018-02-15T13:06:29.107Z,21.37
2018-02-15T13:08:56.651Z,12.50
2018-02-15T13:11:24.256Z,25.53
2018-02-15T13:13:51.835Z,36.87
2018-02-15T13:16:31.219Z,20.23
2018-02-15T13:19:10.610Z,21.93
2018-02-15T13:21:38.222Z,13.27
2018-02-15T13:24:06.496Z,17.67
2018-02-15T13:26:35.906Z,32.13
2018-02-15T13:29:03.468Z,29.30
2018-02-15T13:31:31.332Z,20.10
2018-02-15T13:34:00.975Z,14.03
2018-02-15T13:36:28.536Z,9.03
2018-02-15T13:38:56.853Z,16.00
2018-02-15T13:41:24.493Z,8.63
2018-02-15T13:43:52.070Z,9.50
2018-02-15T13:46:19.596Z,9.97
2018-02-15T13:48:47.157Z,10.63
2018-02-15T13:51:15.502Z,4.40
2018-02-15T13:53:43.098Z,5.53
2018-02-15T13:56:10.630Z,5.73
2018-02-15T13:58:38.291Z,10.17
2018-02-15T14:01:06.668Z,9.10
2018-02-15T14:03:35.144Z,7.47
2018-02-15T14:06:02.700Z,5.30
2018-02-15T14:08:30.304Z,7.63
2018-02-15T14:10:57.921Z,5.73
2018-02-15T14:13:26.316Z,9.40
2018-02-15T14:15:53.861Z,4.13
2018-02-15T14:18:21.413Z,7.50
2018-02-15T14:20:49.003Z,6.62
2018-02-15T14:23:16.568Z,12.05
2018-02-15T14:25:44.153Z,15.53
2018-02-15T14:28:11.833Z,9.65
2018-02-15T14:30:39.540Z,12.80
2018-02-15T14:33:07.741Z,19.48
2018-02-15T14:35:36.012Z,8.52
2018-02-15T14:38:03.609Z,11.02
2018-02-15T14:40:31.187Z,12.15
2018-02-15T14:42:58.899Z,8.68
2018-02-15T14:45:27.212Z,6.50
2018-02-15T14:47:54.768Z,9.60
2018-02-15T14:50:22.482Z,4.30
2018-02-15T14:52:50.054Z,5.50
2018-02-15T14:55:17.614Z,9.10
2018-02-15T14:57:45.396Z,6.40
2018-02-15T15:00:12.979Z,7.35
2018-02-15T15:02:40.572Z,5.85
2018-02-15T15:05:09.000Z,7.68
2018-02-15T15:07:37.944Z,5.37
2018-02-15T15:10:05.808Z,22.55
2018-02-15T15:12:33.495Z,7.97
2018-02-15T15:15:01.067Z,5.97
2018-02-15T15:17:28.705Z,7.25
2018-02-15T15:19:57.190Z,6.85
2018-02-15T15:22:24.738Z,6.78
2018-02-15T15:24:52.310Z,4.20
2018-02-15T15:27:19.870Z,5.45
2018-02-15T15:29:47.541Z,3.97
2018-02-15T15:32:15.863Z,7.22
2018-02-15T15:34:44.696Z,6.30
2018-02-15T15:37:12.396Z,7.40
2018-02-15T15:39:40.007Z,9.50
2018-02-15T15:42:07.567Z,6.45
2018-02-15T15:44:36.395Z,6.28
2018-02-15T15:47:05.428Z,9.60
2018-02-15T15:49:32.990Z,11.98
2018-02-15T15:52:00.668Z,18.83
2018-02-15T15:54:28.994Z,7.80
2018-02-15T15:56:56.599Z,8.20
2018-02-15T15:59:24.332Z,8.90
2018-02-15T16:01:51.924Z,10.27
2018-02-15T16:04:21.412Z,11.18
2018-02-15T16:06:49.101Z,9.85
2018-02-15T16:09:17.405Z,13.30
2018-02-15T16:11:45.395Z,10.40
2018-02-15T16:14:13.135Z,12.35
2018-02-15T16:16:40.716Z,13.45
2018-02-15T16:19:09.320Z,13.35
2018-02-15T16:21:39.046Z,18.95
2018-02-15T16:24:10.169Z,13.62
2018-02-15T16:26:39.013Z,13.13
2018-02-15T16:29:08.099Z,11.43
2018-02-15T16:31:36.363Z,10.18
2018-02-15T16:34:04.109Z,14.68
2018-02-15T16:36:31.965Z,11.88
2018-02-15T16:39:01.645Z,22.00
2018-02-15T16:41:29.301Z,19.48
2018-02-15T16:43:57.046Z,15.85
2018-02-15T16:46:25.535Z,16.52
2018-02-15T16:48:53.899Z,16.90
2018-02-15T16:51:22.335Z,16.92
2018-02-15T16:53:49.967Z,16.27
2018-02-15T16:56:18.461Z,14.50
2018-02-15T16:58:46.214Z,16.10
2018-02-15T17:01:13.888Z,18.10
2018-02-15T17:03:42.125Z,24.58
2018-02-15T17:06:10.884Z,19.35
2018-02-15T17:08:38.753Z,17.17
2018-02-15T17:11:07.302Z,23.40
2018-02-15T17:13:35.905Z,24.92
2018-02-15T17:16:03.697Z,17.60
2018-02-15T17:18:31.295Z,17.63
2018-02-15T17:20:59.773Z,23.67
2018-02-15T17:23:27.368Z,21.63
2018-02-15T17:25:55.008Z,13.50
2018-02-15T17:28:22.960Z,20.80
2018-02-15T17:30:50.602Z,25.27
2018-02-15T17:33:21.198Z,25.50
2018-02-15T17:35:48.854Z,17.25
2018-02-15T17:38:16.453Z,20.77
2018-02-15T17:40:44.822Z,17.75
2018-02-15T17:43:13.257Z,19.85
2018-02-15T17:45:40.949Z,20.23
2018-02-15T17:48:09.352Z,23.07
2018-02-15T17:50:38.220Z,23.67
2018-02-15T17:53:06.842Z,30.67
2018-02-15T17:55:34.892Z,23.25
2018-02-15T17:58:03.394Z,21.03
2018-02-15T18:00:31.025Z,17.73
2018-02-15T18:02:58.710Z,19.40
2018-02-15T18:05:26.354Z,20.63
2018-02-15T18:07:54.014Z,23.53
2018-02-15T18:10:21.618Z,26.03
2018-02-15T18:12:49.307Z,25.40
2018-02-15T18:15:17.012Z,24.40
2018-02-15T18:17:44.679Z,21.08
2018-02-15T18:20:12.291Z,29.53
2018-02-15T18:22:40.813Z,24.65
2018-02-15T18:25:08.472Z,25.07
2018-02-15T18:27:36.885Z,21.10
2018-02-15T18:30:05.050Z,27.50
2018-02-15T18:32:32.693Z,22.50
2018-02-15T18:35:00.293Z,26.90
2018-02-15T18:37:27.860Z,32.73
2018-02-15T18:39:56.230Z,23.80
2018-02-15T18:42:26.233Z,24.13
2018-02-15T18:44:53.891Z,29.50
2018-02-15T18:47:21.562Z,24.23
2018-02-15T18:49:49.114Z,30.20
2018-02-15T18:52:16.919Z,25.70
2018-02-15T18:54:44.639Z,26.23
2018-02-15T18:57:12.239Z,32.93
2018-02-15T18:59:40.827Z,26.93
2018-02-15T19:02:08.439Z,31.73
2018-02-15T19:04:36.607Z,26.90
2018-02-15T19:07:05.019Z,24.10
2018-02-15T19:09:33.366Z,29.37
2018-02-15T19:12:00.907Z,43.87
2018-02-15T19:14:28.727Z,25.87
2018-02-15T19:16:56.259Z,29.33
2018-02-15T19:19:23.831Z,28.93
2018-02-15T19:21:51.490Z,27.60
2018-02-15T19:24:19.070Z,36.67
2018-02-15T19:26:47.391Z,38.43
2018-02-15T19:29:15.610Z,33.53
2018-02-15T19:31:43.249Z,31.70
2018-02-15T19:34:10.817Z,33.10
2018-02-15T19:36:38.773Z,30.17
2018-02-15T19:39:07.119Z,35.87
2018-02-15T19:41:35.388Z,37.87
2018-02-15T19:44:03.330Z,29.27
2018-02-15T19:46:30.939Z,31.93
2018-02-15T19:48:59.275Z,36.43
2018-02-15T19:51:26.846Z,31.40
2018-02-15T19:53:54.513Z,28.57
2018-02-15T19:56:22.278Z,32.20
2018-02-15T19:58:49.855Z,27.40
2018-02-15T20:01:17.468Z,28.17
2018-02-15T20:03:46.004Z,28.30
2018-02-15T20:06:13.668Z,31.80
2018-02-15T20:08:41.327Z,29.97
2018-02-15T20:11:08.921Z,29.50
2018-02-15T20:13:37.395Z,33.00
2018-02-15T20:16:05.916Z,30.47
2018-02-15T20:18:33.527Z,29.50
2018-02-15T20:21:01.146Z,40.07
2018-02-15T20:23:28.833Z,38.07
2018-02-15T20:26:02.781Z,32.67
2018-02-15T20:28:31.181Z,38.10
2018-02-15T20:30:58.829Z,38.00
2018-02-15T20:33:26.515Z,37.97
2018-02-15T20:35:54.969Z,45.60
2018-02-15T20:38:29.213Z,36.57
2018-02-15T20:40:56.752Z,35.28
2018-02-15T20:43:25.121Z,35.70
2018-02-15T20:45:52.963Z,32.53
2018-02-15T20:48:20.577Z,43.23
2018-02-15T20:50:54.482Z,34.87
2018-02-15T20:53:27.615Z,34.40
2018-02-15T20:55:55.142Z,31.60
2018-02-15T20:58:22.769Z,41.07
2018-02-15T21:00:50.321Z,40.13
2018-02-15T21:03:18.051Z,38.47
2018-02-15T21:05:45.609Z,29.97
2018-02-15T21:08:13.183Z,40.33
2018-02-15T21:10:41.569Z,44.87
2018-02-15T21:13:09.164Z,31.30
2018-02-15T21:15:37.020Z,31.43
2018-02-15T21:18:06.104Z,42.93
2018-02-15T21:20:33.652Z,37.40
2018-02-15T21:23:01.186Z,33.80
2018-02-15T21:25:29.756Z,36.60
2018-02-15T21:27:58.094Z,33.67
2018-02-15T21:30:25.690Z,31.73
2018-02-15T21:32:53.401Z,34.63
2018-02-15T21:35:20.941Z,36.50
2018-02-15T21:37:48.532Z,38.57
2018-02-15T21:40:17.102Z,30.77
2018-02-15T21:42:45.557Z,31.93
2018-02-15T21:45:13.124Z,36.77
2018-02-15T21:47:41.495Z,35.60
2018-02-15T21:50:09.055Z,41.50
2018-02-15T21:52:36.952Z,37.83
2018-02-15T21:55:05.307Z,35.33
2018-02-15T21:57:32.862Z,36.93
2018-02-15T22:00:00.447Z,37.23
2018-02-15T22:02:28.185Z,38.93
2018-02-15T22:04:55.757Z,42.30
2018-02-15T22:07:24.117Z,34.60
2018-02-15T22:09:52.552Z,38.37
2018-02-15T22:12:20.105Z,38.00
2018-02-15T22:14:47.650Z,32.53
2018-02-15T22:17:16.075Z,39.33
2018-02-15T22:19:43.605Z,40.63
2018-02-15T22:22:11.832Z,37.57
2018-02-15T22:24:40.592Z,37.43
2018-02-15T22:27:09.101Z,45.33
2018-02-15T22:29:38.108Z,37.13
2018-02-15T22:32:07.628Z,39.50
2018-02-15T22:34:36.056Z,42.53
2018-02-15T22:37:03.617Z,47.87
2018-02-15T22:39:32.123Z,47.40
2018-02-15T22:42:01.556Z,40.13
2018-02-15T22:44:29.869Z,43.50
2018-02-15T22:46:57.529Z,39.80
2018-02-15T22:49:25.243Z,39.77
2018-02-15T22:51:53.555Z,37.27
2018-02-15T22:54:23.267Z,41.00
2018-02-15T22:56:51.571Z,36.53
2018-02-15T22:59:20.117Z,45.53
2018-02-15T23:01:47.788Z,37.63
2018-02-15T23:04:15.390Z,35.37
2018-02-15T23:06:43.113Z,46.60
2018-02-15T23:09:11.542Z,39.83
2018-02-15T23:11:39.957Z,41.73
2018-02-15T23:14:07.524Z,38.77
2018-02-15T23:16:36.836Z,38.40
2018-02-15T23:19:04.966Z,33.90
2018-02-15T23:21:32.518Z,41.00
2018-02-15T23:24:00.962Z,36.87
2018-02-15T23:26:30.717Z,36.97
2018-02-15T23:28:58.326Z,35.60
2018-02-15T23:31:26.848Z,38.33
2018-02-15T23:33:54.392Z,44.80
2018-02-15T23:36:21.918Z,42.70
2018-02-15T23:38:49.490Z,42.10
2018-02-15T23:41:17.051Z,49.53
2018-02-15T23:43:45.381Z,56.50
2018-02-15T23:46:13.057Z,48.03
2018-02-15T23:48:40.798Z,45.40
2018-02-15T23:51:08.526Z,51.83
2018-02-15T23:53:37.742Z,41.93
2018-02-15T23:56:05.859Z,46.17
2018-02-15T23:58:33.407Z,48.60
